Terminal Aerodrome Forecast
Issued by NWS

Home | Current Version | Previous Version | Text Only | Print | Product List | Glossary Off
Versions: 1 2 3 4 5 6 7 8 9 10 11 12 13 14 15 16 17 18

000
FTUS43 KICT 272338
TAFRSL
TAF
KRSL 272338Z 2800/2824 14010KT P6SM OVC050
     FM280400 16010KT P6SM OVC025
     FM281200 16012KT 1SM -SN OVC015=

USA.gov is the U.S. government's official web portal to all federal, state and local government web resources and services.